Time;durP1;ratioP1;P1;durP2;ratioP2;P2;SDS_P1;SDS_P2;PMS_P1;PMS_P2;Temp;Humidity;BMP_temperature;BMP_pressure;BME280_temperature;BME280_humidity;BME280_pressure;Samples;Min_cycle;Max_cycle;Signal;HPM_P1;HPM_P2
2023/10/03 00:00:57;;;;;;;5.82;2.95;;;;;;;23.11;43.37;101043.66;5114256;28;20097;-63
2023/10/03 00:03:26;;;;;;;7.40;3.40;;;;;;;23.10;43.23;101036.50;5114303;28;20058;-62
2023/10/03 00:05:55;;;;;;;5.35;2.95;;;;;;;23.08;43.46;101033.09;5113883;28;20047;-64
2023/10/03 00:08:25;;;;;;;5.43;2.95;;;;;;;23.05;43.53;101027.94;5114228;28;20108;-65
2023/10/03 00:10:53;;;;;;;6.15;3.13;;;;;;;23.04;43.63;101020.78;5113948;28;20105;-63
2023/10/03 00:13:25;;;;;;;5.88;2.85;;;;;;;23.04;43.31;101030.81;5113828;28;20047;-64
2023/10/03 00:15:55;;;;;;;5.30;2.85;;;;;;;23.03;43.47;101031.81;5113706;28;20056;-63
2023/10/03 00:18:23;;;;;;;5.68;2.92;;;;;;;23.01;43.46;101026.53;5113983;28;20160;-63
2023/10/03 00:20:52;;;;;;;4.97;2.67;;;;;;;23.00;43.53;101032.13;5113804;28;20104;-63
2023/10/03 00:23:21;;;;;;;6.72;3.00;;;;;;;23.00;43.16;101032.13;5113770;28;20043;-62
2023/10/03 00:25:49;;;;;;;5.47;2.92;;;;;;;22.98;43.23;101032.28;5113792;28;20043;-63
2023/10/03 00:28:19;;;;;;;5.07;2.92;;;;;;;22.97;43.27;101019.72;5113339;28;20429;-63
2023/10/03 00:30:48;;;;;;;5.65;3.17;;;;;;;22.97;43.30;101024.25;5113773;28;20461;-64
2023/10/03 00:33:19;;;;;;;5.85;2.85;;;;;;;22.95;43.31;101020.84;5113526;28;20047;-62
2023/10/03 00:35:48;;;;;;;5.22;2.70;;;;;;;22.94;43.45;101021.84;5113698;28;20074;-62
2023/10/03 00:38:18;;;;;;;5.93;2.83;;;;;;;22.92;43.39;101013.84;5113559;28;20132;-65
2023/10/03 00:40:50;;;;;;;6.25;2.65;;;;;;;22.92;43.35;101010.28;5113210;28;20051;-63
2023/10/03 00:43:19;;;;;;;6.68;2.90;;;;;;;22.90;43.24;101010.44;5113247;28;20499;-64
2023/10/03 00:45:49;;;;;;;5.68;3.10;;;;;;;22.90;43.36;101006.88;5113053;28;20047;-63
2023/10/03 00:48:21;;;;;;;7.75;2.90;;;;;;;22.90;43.41;101006.88;5113398;28;20521;-63
2023/10/03 00:50:53;;;;;;;5.07;2.63;;;;;;;22.87;43.33;100999.00;5112840;28;20111;-63
2023/10/03 00:53:21;;;;;;;5.25;3.10;;;;;;;22.87;43.57;101002.56;5113068;28;20051;-63
2023/10/03 00:55:50;;;;;;;5.93;2.88;;;;;;;22.84;43.30;101003.75;5113226;28;20090;-64
2023/10/03 00:58:24;;;;;;;5.43;2.78;;;;;;;22.82;43.49;100997.56;5113272;28;20043;-64
2023/10/03 01:00:54;;;;;;;4.78;2.97;;;;;;;22.81;43.64;100998.59;5112970;28;20040;-63
2023/10/03 01:03:29;;;;;;;4.10;2.17;;;;;;;22.81;43.47;100998.59;5113093;28;20050;-64
2023/10/03 01:06:05;;;;;;;5.90;3.10;;;;;;;22.80;43.47;100990.59;5112617;28;20050;-64
2023/10/03 01:08:36;;;;;;;5.82;3.00;;;;;;;22.78;43.30;100990.75;5112834;28;20518;-64
2023/10/03 01:11:07;;;;;;;4.57;2.55;;;;;;;22.77;43.43;100986.28;5112466;28;20062;-64
2023/10/03 01:13:36;;;;;;;4.32;2.50;;;;;;;22.76;43.33;100983.72;5112750;28;20044;-64
2023/10/03 01:16:05;;;;;;;5.63;2.63;;;;;;;22.75;43.51;100984.72;5112731;28;20047;-64
2023/10/03 01:18:38;;;;;;;5.32;2.80;;;;;;;22.74;43.30;100981.16;5112464;28;20420;-63
2023/10/03 01:21:06;;;;;;;5.03;2.47;;;;;;;22.72;43.35;100972.31;5112764;28;20083;-64
2023/10/03 01:23:39;;;;;;;4.18;2.65;;;;;;;22.71;43.28;100975.19;5112800;28;20075;-64
2023/10/03 01:26:09;;;;;;;4.18;2.47;;;;;;;22.70;43.35;100978.91;5112394;28;20120;-65
2023/10/03 01:28:38;;;;;;;5.30;2.85;;;;;;;22.69;43.44;100971.78;5112730;28;20054;-64
2023/10/03 01:31:06;;;;;;;6.70;3.22;;;;;;;22.66;43.37;100966.63;5112239;28;20039;-64
2023/10/03 01:33:35;;;;;;;5.68;2.92;;;;;;;22.65;43.37;100970.34;5112640;28;20079;-64
2023/10/03 01:36:03;;;;;;;5.13;2.67;;;;;;;22.64;43.40;100971.34;5112262;28;20047;-64
2023/10/03 01:38:32;;;;;;;6.18;2.97;;;;;;;22.64;43.39;100980.38;5112309;28;20043;-64
2023/10/03 01:41:02;;;;;;;5.82;3.08;;;;;;;22.62;43.57;100968.78;5112406;28;20104;-63
2023/10/03 01:43:30;;;;;;;6.38;3.15;;;;;;;22.60;43.30;100968.09;5112374;28;20048;-64
2023/10/03 01:45:58;;;;;;;5.50;2.50;;;;;;;22.59;43.31;100966.41;5112418;28;20420;-64
2023/10/03 01:48:27;;;;;;;5.47;2.78;;;;;;;22.53;43.36;100956.97;5112526;28;20047;-62
2023/10/03 01:50:56;;;;;;;4.75;2.60;;;;;;;22.57;43.29;100973.81;5112457;28;20071;-63
2023/10/03 01:53:25;;;;;;;5.88;2.45;;;;;;;22.57;43.54;100960.22;5112278;28;20056;-63
2023/10/03 01:55:53;;;;;;;5.88;2.70;;;;;;;22.55;43.44;100967.69;5111932;28;20088;-63
2023/10/03 01:58:24;;;;;;;5.85;2.70;;;;;;;22.54;43.42;100963.25;5111572;28;20435;-63
2023/10/03 02:00:52;;;;;;;5.97;2.83;;;;;;;22.53;43.42;100965.13;5111807;28;20054;-64
2023/10/03 02:03:22;;;;;;;5.07;2.67;;;;;;;22.52;43.33;100959.84;5112200;28;20056;-65
2023/10/03 02:05:53;;;;;;;4.90;2.80;;;;;;;22.52;43.47;100959.84;5111986;28;20058;-64
2023/10/03 02:08:24;;;;;;;5.38;2.58;;;;;;;22.50;43.47;100964.59;5111852;28;20416;-64
2023/10/03 02:10:53;;;;;;;5.43;2.58;;;;;;;22.49;43.40;100961.00;5111745;28;20050;-65
2023/10/03 02:13:23;;;;;;;6.07;2.65;;;;;;;22.48;43.47;100956.56;5112204;28;20044;-63
2023/10/03 02:15:53;;;;;;;5.43;2.65;;;;;;;22.47;43.60;100956.72;5112076;28;20055;-63
2023/10/03 02:18:22;;;;;;;4.80;2.53;;;;;;;22.45;43.68;100956.88;5112128;28;20039;-63
2023/10/03 02:20:52;;;;;;;5.10;2.67;;;;;;;22.45;43.39;100953.31;5111835;28;20059;-63
2023/10/03 02:23:23;;;;;;;4.57;2.58;;;;;;;22.42;43.39;100945.47;5111817;28;20079;-64
2023/10/03 02:25:54;;;;;;;4.82;2.65;;;;;;;22.41;43.39;100950.03;5111984;28;20130;-63
2023/10/03 02:28:26;;;;;;;5.28;2.80;;;;;;;22.41;43.15;100951.91;5111803;28;20100;-63
2023/10/03 02:30:57;;;;;;;6.50;2.67;;;;;;;22.40;43.40;100939.31;5112147;28;20054;-63
2023/10/03 02:33:26;;;;;;;4.32;2.35;;;;;;;22.38;43.57;100942.16;5111937;28;20057;-63
2023/10/03 02:35:57;;;;;;;5.35;2.88;;;;;;;22.36;43.25;100938.75;5111875;28;20139;-63
2023/10/03 02:38:29;;;;;;;5.93;2.72;;;;;;;22.35;43.01;100936.19;5111891;28;20055;-64
2023/10/03 02:40:59;;;;;;;5.87;3.10;;;;;;;22.35;43.60;100937.06;5111846;28;20098;-62
2023/10/03 02:43:33;;;;;;;4.63;2.50;;;;;;;22.33;43.34;100936.34;5111727;28;20097;-62
2023/10/03 02:46:04;;;;;;;4.50;2.80;;;;;;;22.33;43.27;100935.50;5111894;28;20052;-63
2023/10/03 02:48:33;;;;;;;4.70;2.75;;;;;;;22.33;43.51;100935.50;5111731;28;20146;-63
2023/10/03 02:51:02;;;;;;;4.70;2.58;;;;;;;22.30;43.21;100938.53;5111787;28;20055;-62
2023/10/03 02:53:31;;;;;;;4.75;2.63;;;;;;;22.30;43.23;100935.81;5111545;28;20500;-62
2023/10/03 02:55:59;;;;;;;4.93;2.65;;;;;;;22.28;43.11;100939.50;5111785;28;20050;-63
2023/10/03 02:58:28;;;;;;;6.05;3.00;;;;;;;22.27;43.57;100929.66;5111621;28;20047;-63
2023/10/03 03:00:58;;;;;;;4.80;2.50;;;;;;;22.27;43.33;100935.09;5111353;28;20089;-64
2023/10/03 03:03:30;;;;;;;5.63;2.92;;;;;;;22.25;43.23;100928.09;5111804;28;20097;-62
2023/10/03 03:06:02;;;;;;;4.45;2.50;;;;;;;22.25;43.19;100930.81;5111356;28;20477;-63
2023/10/03 03:08:33;;;;;;;5.28;2.67;;;;;;;22.23;43.53;100928.25;5111656;28;20070;-62
2023/10/03 03:11:05;;;;;;;5.18;2.50;;;;;;;22.23;43.42;100922.81;5111456;28;20079;-62
2023/10/03 03:13:35;;;;;;;4.85;2.40;;;;;;;22.21;43.33;100922.13;5112216;28;20050;-64
2023/10/03 03:16:06;;;;;;;5.45;2.80;;;;;;;22.19;43.28;100924.09;5115280;28;20054;-62
2023/10/03 03:18:40;;;;;;;5.63;2.70;;;;;;;22.19;43.47;100929.53;5115210;28;20134;-63
2023/10/03 03:21:13;;;;;;;4.40;2.60;;;;;;;22.19;43.40;100921.38;5114840;28;20643;-65
2023/10/03 03:23:49;;;;;;;6.03;2.85;;;;;;;22.18;43.24;100918.84;5114860;28;20043;-63
2023/10/03 03:26:20;;;;;;;6.10;2.92;;;;;;;22.16;43.19;100927.13;5115000;28;20040;-63
2023/10/03 03:28:51;;;;;;;5.20;2.97;;;;;;;22.16;43.22;100916.28;5114861;28;20044;-63
2023/10/03 03:31:22;;;;;;;5.65;2.72;;;;;;;22.15;43.40;100917.28;5114799;28;20465;-62
2023/10/03 03:33:52;;;;;;;4.90;2.80;;;;;;;22.14;43.38;100920.16;5114948;28;20051;-62
2023/10/03 03:36:23;;;;;;;5.25;2.63;;;;;;;22.13;43.38;100915.72;5114769;28;20047;-62
2023/10/03 03:38:54;;;;;;;5.55;2.50;;;;;;;22.11;43.35;100913.16;5114466;28;20051;-63
2023/10/03 03:41:23;;;;;;;5.43;3.00;;;;;;;22.09;43.48;100904.28;5114591;28;20136;-61
2023/10/03 03:43:52;;;;;;;4.90;2.63;;;;;;;22.09;43.43;100907.00;5114723;28;20082;-63
2023/10/03 03:46:22;;;;;;;5.35;2.83;;;;;;;22.07;43.36;100911.75;5114676;28;20086;-63
2023/10/03 03:48:50;;;;;;;6.03;3.00;;;;;;;22.07;43.38;100911.75;5114292;28;20092;-63
2023/10/03 03:51:19;;;;;;;4.93;2.58;;;;;;;22.07;43.30;100911.75;5114620;28;20047;-63
2023/10/03 03:53:52;;;;;;;6.30;2.92;;;;;;;22.05;43.49;100896.56;5114586;28;20048;-62
2023/10/03 03:56:21;;;;;;;5.95;2.80;;;;;;;22.04;43.27;100901.16;5114484;28;20412;-64
2023/10/03 03:58:49;;;;;;;5.53;2.75;;;;;;;22.04;43.39;100903.88;5114372;28;20494;-63
2023/10/03 04:01:19;;;;;;;4.47;2.60;;;;;;;22.02;43.43;100892.31;5114112;28;20126;-63
2023/10/03 04:03:51;;;;;;;4.82;2.72;;;;;;;22.02;43.51;100894.16;5113806;28;20083;-64
2023/10/03 04:06:20;;;;;;;5.32;2.80;;;;;;;22.01;43.45;100896.03;5114197;28;20148;-62
2023/10/03 04:08:49;;;;;;;4.70;2.33;;;;;;;22.00;43.39;100899.72;5114187;28;20044;-62
2023/10/03 04:11:21;;;;;;;;;;;;;;;21.99;43.32;100904.31;5114181;28;20519;-62
2023/10/03 04:13:55;;;;;;;5.25;2.58;;;;;;;21.98;43.12;100901.75;5114078;28;20026;-63
2023/10/03 04:16:27;;;;;;;4.82;2.67;;;;;;;21.97;43.32;100894.59;5113574;28;20464;-62
2023/10/03 04:18:56;;;;;;;4.72;2.60;;;;;;;21.95;43.50;100897.47;5114081;28;20055;-62
2023/10/03 04:21:27;;;;;;;4.95;2.60;;;;;;;21.96;43.61;100901.03;5113658;28;20039;-62
2023/10/03 04:23:58;;;;;;;6.05;2.85;;;;;;;21.95;43.70;100904.78;5113811;28;20043;-62
2023/10/03 04:26:27;;;;;;;4.57;2.50;;;;;;;21.92;43.54;100903.22;5112432;28;20065;-63
2023/10/03 04:28:56;;;;;;;4.97;2.33;;;;;;;21.92;43.38;100903.22;5113679;28;20047;-62
2023/10/03 04:31:26;;;;;;;6.22;3.15;;;;;;;21.92;43.45;100902.38;5113589;28;20043;-62
2023/10/03 04:33:56;;;;;;;5.65;3.00;;;;;;;21.91;43.44;100911.53;5113148;28;20044;-62
2023/10/03 04:36:26;;;;;;;6.93;3.10;;;;;;;21.90;43.45;100905.19;5113407;28;20051;-62
2023/10/03 04:38:55;;;;;;;5.28;2.70;;;;;;;21.89;43.59;100910.78;5113537;28;20048;-62
2023/10/03 04:41:24;;;;;;;5.50;2.95;;;;;;;21.88;43.49;100906.38;5113027;28;20051;-62
2023/10/03 04:43:55;;;;;;;7.00;2.97;;;;;;;21.86;43.63;100905.66;5113226;28;20447;-63
2023/10/03 04:46:24;;;;;;;6.20;3.00;;;;;;;21.85;43.65;100902.09;5113080;28;20058;-63
2023/10/03 04:48:52;;;;;;;5.18;2.88;;;;;;;21.84;43.27;100899.53;5113229;28;20043;-59
2023/10/03 04:51:21;;;;;;;5.10;2.88;;;;;;;21.84;43.57;100899.53;5113142;28;20109;-62
2023/10/03 04:53:51;;;;;;;6.30;3.28;;;;;;;21.83;43.59;100903.25;5112764;28;20039;-62
2023/10/03 04:56:19;;;;;;;6.40;3.10;;;;;;;21.82;43.70;100896.13;5112985;28;20046;-63
2023/10/03 04:58:48;;;;;;;6.43;3.38;;;;;;;21.81;43.38;100895.25;5112655;28;20044;-63
2023/10/03 05:01:17;;;;;;;5.85;2.92;;;;;;;21.80;43.56;100898.09;5112856;28;20047;-63
2023/10/03 05:03:45;;;;;;;5.82;2.97;;;;;;;21.80;43.21;100898.09;5112412;28;20142;-64
2023/10/03 05:06:14;;;;;;;6.35;3.00;;;;;;;21.76;43.60;100900.28;5112698;28;20416;-62
2023/10/03 05:08:42;;;;;;;5.63;3.10;;;;;;;21.78;43.33;100902.84;5112865;28;20050;-63
2023/10/03 05:11:13;;;;;;;7.45;3.35;;;;;;;21.76;43.65;100899.41;5112501;28;20364;-62
2023/10/03 05:13:43;;;;;;;6.18;2.95;;;;;;;21.76;43.56;100905.69;5112628;28;20039;-62
2023/10/03 05:16:11;;;;;;;7.20;3.35;;;;;;;21.76;43.39;100902.13;5112328;28;20460;-63
2023/10/03 05:18:40;;;;;;;6.28;3.25;;;;;;;21.73;43.28;100902.44;5112534;28;20404;-62
2023/10/03 05:21:08;;;;;;;6.18;3.17;;;;;;;21.73;43.49;100906.00;5112313;28;20052;-63
2023/10/03 05:23:37;;;;;;;6.45;3.13;;;;;;;21.73;43.74;100905.16;5112079;28;20450;-64
2023/10/03 05:26:07;;;;;;;7.85;3.33;;;;;;;21.73;43.51;100905.16;5112423;28;20093;-64
2023/10/03 05:28:39;;;;;;;4.63;2.88;;;;;;;21.72;43.44;100890.72;5112354;28;20055;-63
2023/10/03 05:31:12;;;;;;;6.45;3.28;;;;;;;21.71;43.55;100895.31;5112310;28;20043;-63
2023/10/03 05:33:42;;;;;;;5.95;3.03;;;;;;;21.70;43.56;100899.00;5112149;28;20480;-64
2023/10/03 05:36:16;;;;;;;7.63;3.63;;;;;;;21.68;43.78;100901.00;5111493;28;20039;-63
2023/10/03 05:38:44;;;;;;;5.00;2.80;;;;;;;21.69;43.43;100897.28;5112024;28;20039;-63
2023/10/03 05:41:21;;;;;;;7.03;3.50;;;;;;;21.66;43.54;100897.59;5111975;28;20047;-63
2023/10/03 05:43:51;;;;;;;9.20;3.70;;;;;;;21.67;43.47;100904.72;5111621;28;20556;-63
2023/10/03 05:46:20;;;;;;;5.30;3.10;;;;;;;21.67;43.49;100909.31;5111564;28;20047;-64
2023/10/03 05:48:50;;;;;;;5.47;3.40;;;;;;;21.67;43.42;100915.59;5112005;28;20412;-64
2023/10/03 05:51:20;;;;;;;5.85;3.10;;;;;;;21.65;43.72;100906.75;5111838;28;20437;-63
2023/10/03 05:53:49;;;;;;;6.75;3.13;;;;;;;21.65;43.69;100906.75;5111447;28;20119;-64
2023/10/03 05:56:18;;;;;;;7.38;3.00;;;;;;;21.65;43.83;100912.16;5111771;28;20074;-63
2023/10/03 05:58:46;;;;;;;6.55;3.05;;;;;;;21.64;43.62;100910.47;5111381;28;20108;-63
2023/10/03 06:01:16;;;;;;;5.35;3.17;;;;;;;21.64;43.52;100920.47;5111780;28;20148;-63
2023/10/03 06:03:44;;;;;;;6.30;3.25;;;;;;;21.64;43.50;100923.19;5111760;28;20043;-63
2023/10/03 06:06:14;;;;;;;6.35;2.80;;;;;;;21.63;43.53;100922.34;5093863;28;20046;-63
2023/10/03 06:08:45;;;;;;;5.63;2.90;;;;;;;21.63;43.58;100922.34;5111914;28;20047;-64
2023/10/03 06:11:13;;;;;;;6.00;3.25;;;;;;;21.62;43.80;100923.34;5111436;28;20043;-64
2023/10/03 06:13:44;;;;;;;5.88;3.13;;;;;;;21.60;43.86;100922.59;5111955;28;20047;-65
2023/10/03 06:16:14;;;;;;;5.97;2.92;;;;;;;21.62;43.68;100922.47;5111776;28;20095;-64
2023/10/03 06:18:44;;;;;;;7.13;3.35;;;;;;;21.61;43.72;100921.59;5111683;28;20051;-63
2023/10/03 06:21:13;;;;;;;4.63;2.70;;;;;;;21.60;43.92;100928.03;5111987;28;20389;-63
2023/10/03 06:23:41;;;;;;;5.72;3.00;;;;;;;21.60;43.86;100936.19;5111505;28;20043;-62
2023/10/03 06:26:10;;;;;;;4.30;2.60;;;;;;;21.60;43.72;100925.31;5111509;28;20039;-64
2023/10/03 06:28:38;;;;;;;7.85;3.50;;;;;;;21.60;43.71;100928.03;5111813;28;20047;-63
2023/10/03 06:31:06;;;;;;;6.53;3.10;;;;;;;21.60;43.90;100925.31;5111794;28;20133;-61
2023/10/03 06:33:34;;;;;;;6.43;3.13;;;;;;;21.59;43.66;100929.03;5111478;28;20055;-61
2023/10/03 06:36:06;;;;;;;7.22;3.25;;;;;;;21.60;43.71;100924.47;5111537;28;20043;-62
2023/10/03 06:38:36;;;;;;;5.50;2.80;;;;;;;21.59;43.75;100918.19;5111464;28;20120;-65
2023/10/03 06:41:05;;;;;;;6.35;3.08;;;;;;;21.60;44.01;100919.03;5111397;28;20092;-64
2023/10/03 06:43:33;;;;;;;5.45;2.90;;;;;;;21.60;43.89;100924.47;5111277;28;20052;-63
2023/10/03 06:46:03;;;;;;;6.50;2.63;;;;;;;21.60;43.69;100921.75;5111132;28;20051;-63
2023/10/03 06:48:31;;;;;;;7.13;3.15;;;;;;;21.58;43.86;100921.03;5112405;28;20043;-64
2023/10/03 06:51:04;;;;;;;6.28;3.00;;;;;;;21.59;43.73;100918.19;5115265;28;20048;-64
2023/10/03 06:53:34;;;;;;;;;;;;;;;21.59;43.71;100920.03;5115895;28;20101;-64
2023/10/03 06:56:02;;;;;;;6.10;3.10;;;;;;;21.58;43.71;100916.47;5115329;28;20010;-64
2023/10/03 06:58:31;;;;;;;5.88;2.90;;;;;;;21.59;43.85;100925.47;5115297;28;20086;-63
2023/10/03 07:00:59;;;;;;;5.75;3.00;;;;;;;21.58;43.92;100932.75;5115144;28;20044;-65
2023/10/03 07:03:27;;;;;;;6.15;3.08;;;;;;;21.58;44.12;100932.75;5114991;28;20477;-64
2023/10/03 07:05:58;;;;;;;6.50;2.95;;;;;;;21.58;43.70;100927.31;5114906;28;20035;-65
2023/10/03 07:08:27;;;;;;;6.43;3.25;;;;;;;21.59;44.01;100934.47;5115389;28;20134;-63
2023/10/03 07:10:57;;;;;;;5.85;2.72;;;;;;;21.58;43.99;100930.03;5114780;28;20093;-64
2023/10/03 07:13:26;;;;;;;6.72;2.92;;;;;;;21.60;44.07;100924.47;5114679;28;20488;-63
2023/10/03 07:15:57;;;;;;;5.20;2.78;;;;;;;21.59;44.08;100922.75;5114335;28;20036;-63
2023/10/03 07:18:26;;;;;;;6.07;3.00;;;;;;;21.58;44.02;100924.63;5114124;28;20327;-63
2023/10/03 07:20:55;;;;;;;5.75;3.30;;;;;;;21.58;43.99;100924.63;5114672;28;20051;-64
2023/10/03 07:23:23;;;;;;;6.38;3.03;;;;;;;21.59;44.13;100934.47;5114173;28;20400;-63
2023/10/03 07:25:52;;;;;;;6.15;3.22;;;;;;;21.59;43.84;100926.31;5113966;28;20079;-63
2023/10/03 07:28:22;;;;;;;6.05;3.08;;;;;;;21.58;44.35;100927.31;5114284;28;20048;-64
2023/10/03 07:30:51;;;;;;;8.48;3.70;;;;;;;21.59;44.18;100934.47;5114495;28;20054;-63
2023/10/03 07:33:22;;;;;;;5.90;3.30;;;;;;;21.59;44.33;100926.31;5114534;28;20141;-64
2023/10/03 07:35:51;;;;;;;5.72;3.00;;;;;;;21.60;44.14;100936.19;5114580;28;20044;-64
2023/10/03 07:38:19;;;;;;;5.88;2.83;;;;;;;21.60;44.05;100935.31;5114635;28;20052;-65
2023/10/03 07:40:47;;;;;;;7.32;3.28;;;;;;;21.59;44.07;100929.03;5114417;28;20050;-63
2023/10/03 07:43:16;;;;;;;6.25;2.80;;;;;;;21.60;44.08;100933.47;5114106;28;20052;-63
2023/10/03 07:45:46;;;;;;;6.80;3.35;;;;;;;21.60;44.13;100933.47;5114380;28;20123;-64
2023/10/03 07:48:14;;;;;;;6.32;3.10;;;;;;;21.60;44.28;100930.75;5114744;28;20353;-64
2023/10/03 07:50:43;;;;;;;6.22;3.10;;;;;;;21.60;43.99;100933.47;5114318;28;20052;-63
2023/10/03 07:53:12;;;;;;;7.38;2.92;;;;;;;21.60;44.13;100925.31;5114227;28;20188;-63
2023/10/03 07:55:41;;;;;;;7.05;2.95;;;;;;;21.61;44.39;100934.31;5114135;28;20058;-64
2023/10/03 07:58:13;;;;;;;5.57;2.97;;;;;;;21.61;44.34;100932.44;5114139;28;20132;-63
2023/10/03 08:00:44;;;;;;;7.45;3.65;;;;;;;21.61;44.27;100935.16;5114258;28;20474;-64
2023/10/03 08:03:13;;;;;;;6.63;3.17;;;;;;;21.62;44.16;100939.63;5114325;28;20073;-63
2023/10/03 08:05:42;;;;;;;6.68;3.17;;;;;;;21.63;44.18;100940.47;5113949;28;20492;-63
2023/10/03 08:08:11;;;;;;;6.25;3.10;;;;;;;21.63;44.48;100933.19;5113933;28;20493;-64
2023/10/03 08:10:39;;;;;;;6.53;3.20;;;;;;;21.64;44.45;100936.75;5113840;28;20050;-64
2023/10/03 08:13:07;;;;;;;6.38;3.20;;;;;;;21.63;44.24;100925.03;5113549;28;20553;-64
2023/10/03 08:15:36;;;;;;;6.80;3.25;;;;;;;21.64;44.49;100937.59;5113994;28;20048;-64
2023/10/03 08:18:05;;;;;;;6.80;3.47;;;;;;;21.64;44.32;100926.75;5113482;28;20484;-64
2023/10/03 08:20:36;;;;;;;5.43;2.67;;;;;;;21.65;44.28;100931.19;5113874;28;20122;-64
2023/10/03 08:23:05;;;;;;;6.10;3.22;;;;;;;21.66;44.38;100932.88;5113551;28;20474;-63
2023/10/03 08:25:35;;;;;;;8.48;3.38;;;;;;;21.65;44.40;100927.59;5113664;28;20094;-63
2023/10/03 08:28:09;;;;;;;6.00;3.10;;;;;;;21.67;44.45;100931.03;5113792;28;20130;-63
2023/10/03 08:30:38;;;;;;;6.50;3.20;;;;;;;21.67;44.48;100929.16;5113784;28;20057;-63
2023/10/03 08:33:07;;;;;;;5.28;3.40;;;;;;;21.68;44.55;100920.00;5113453;28;20044;-63
2023/10/03 08:35:37;;;;;;;5.25;3.00;;;;;;;21.69;44.54;100919.00;5113367;28;20044;-64
2023/10/03 08:38:07;;;;;;;6.72;3.15;;;;;;;21.69;44.75;100912.72;5113675;28;20043;-64
2023/10/03 08:40:40;;;;;;;5.82;3.25;;;;;;;21.69;44.55;100908.16;5113552;28;20046;-63
2023/10/03 08:43:10;;;;;;;5.38;2.90;;;;;;;21.71;44.69;100905.28;5113445;28;20051;-64
2023/10/03 08:45:43;;;;;;;5.63;3.13;;;;;;;21.71;44.62;100906.16;5113156;28;20052;-64
2023/10/03 08:48:11;;;;;;;;;;;;;;;21.74;44.83;100898.72;5113196;28;20043;-63
2023/10/03 08:50:46;;;;;;;7.70;3.00;;;;;;;21.73;44.70;100897.00;5112977;28;19926;-63
2023/10/03 08:53:17;;;;;;;6.15;3.33;;;;;;;21.73;44.77;100892.44;5113027;28;20065;-63
2023/10/03 08:55:47;;;;;;;6.72;3.40;;;;;;;21.75;45.00;100892.28;5112749;28;20484;-63
2023/10/03 08:58:18;;;;;;;8.90;4.05;;;;;;;21.76;44.68;100891.28;5112822;28;20059;-63
2023/10/03 09:00:49;;;;;;;5.75;3.03;;;;;;;21.76;45.00;100892.13;5113075;28;20052;-64
2023/10/03 09:03:19;;;;;;;6.63;3.30;;;;;;;21.78;45.02;100894.69;5113059;28;20047;-64
2023/10/03 09:05:49;;;;;;;6.82;3.70;;;;;;;21.80;44.96;100889.94;5112733;28;20055;-64
2023/10/03 09:08:18;;;;;;;8.07;3.38;;;;;;;21.81;45.08;100888.94;5112868;28;20636;-63
2023/10/03 09:10:55;;;;;;;6.50;3.35;;;;;;;21.84;45.11;100883.25;5112015;28;20116;-64
2023/10/03 09:13:26;;;;;;;5.72;3.22;;;;;;;21.84;45.19;100884.09;5112630;28;20055;-64
2023/10/03 09:16:02;;;;;;;6.90;3.15;;;;;;;21.84;45.27;100873.22;5112845;28;20047;-63
2023/10/03 09:18:40;;;;;;;6.28;3.17;;;;;;;21.87;45.26;100872.06;5112515;28;20069;-63
2023/10/03 09:21:23;;;;;;;6.13;3.25;;;;;;;21.89;44.92;100867.34;5112467;28;20055;-62
2023/10/03 09:24:01;;;;;;;7.60;3.47;;;;;;;21.91;45.12;100862.63;5112610;28;20579;-64
2023/10/03 09:26:45;;;;;;;7.15;3.65;;;;;;;21.91;45.23;100865.34;5112344;28;20051;-64
2023/10/03 09:29:29;;;;;;;6.93;3.60;;;;;;;21.95;45.10;100853.16;5112354;28;20050;-64
2023/10/03 09:32:07;;;;;;;5.78;2.85;;;;;;;21.96;45.53;100854.88;5111931;28;20416;-63
2023/10/03 09:34:40;;;;;;;5.95;3.28;;;;;;;21.98;45.29;100855.56;5111975;28;20058;-63
2023/10/03 09:37:11;;;;;;;6.78;3.30;;;;;;;22.02;45.46;100843.41;5112241;28;20131;-62
2023/10/03 09:39:48;;;;;;;6.85;3.42;;;;;;;22.03;45.35;100850.56;5112106;28;20050;-62
2023/10/03 09:42:18;;;;;;;6.25;3.50;;;;;;;22.04;45.42;100844.09;5111868;28;20047;-64
2023/10/03 09:44:49;;;;;;;6.53;3.28;;;;;;;22.08;45.36;100850.13;5111780;28;20048;-64
2023/10/03 09:47:20;;;;;;;6.55;3.47;;;;;;;22.10;45.63;100848.97;5112296;28;20048;-64
2023/10/03 09:49:48;;;;;;;6.07;3.40;;;;;;;22.13;45.58;100855.97;5112087;28;20045;-65
2023/10/03 09:52:22;;;;;;;6.15;3.08;;;;;;;22.16;45.54;100845.63;5112396;28;20134;-63
2023/10/03 09:54:54;;;;;;;5.40;3.00;;;;;;;22.18;45.55;100843.59;5111776;28;20104;-64
2023/10/03 09:57:23;;;;;;;6.15;3.10;;;;;;;22.22;45.90;100850.47;5111936;28;20526;-64
2023/10/03 09:59:52;;;;;;;6.50;3.55;;;;;;;22.26;45.67;100842.84;5112068;28;20048;-65
2023/10/03 10:02:30;;;;;;;6.47;3.20;;;;;;;22.28;45.91;100838.09;5112015;28;20138;-64
2023/10/03 10:05:04;;;;;;;7.82;3.78;;;;;;;22.33;46.03;100834.94;5111852;28;20055;-65
2023/10/03 10:07:37;;;;;;;7.22;3.80;;;;;;;22.37;45.78;100841.78;5111671;28;20397;-65
2023/10/03 10:10:11;;;;;;;5.23;3.10;;;;;;;22.41;45.94;100843.19;5111901;28;20043;-64
2023/10/03 10:13:12;;;;;;;6.78;3.17;;;;;;;22.45;45.83;100840.00;5111717;28;20371;-64
2023/10/03 10:16:11;;;;;;;6.03;3.17;;;;;;;22.51;45.83;100830.38;5111483;28;20412;-63
2023/10/03 10:19:04;;;;;;;6.07;3.13;;;;;;;22.54;46.06;100828.19;5111673;28;20043;-64
2023/10/03 10:21:37;;;;;;;5.53;3.00;;;;;;;22.60;46.12;100821.28;5092316;28;20047;-63
2023/10/03 10:24:25;;;;;;;6.37;3.20;;;;;;;22.65;45.81;100818.94;5113555;28;20272;-63
2023/10/03 10:26:59;;;;;;;6.53;3.00;;;;;;;22.71;45.86;100818.31;5115736;28;20054;-65
2023/10/03 10:29:34;;;;;;;5.32;3.20;;;;;;;22.77;46.02;100811.38;5115705;28;20523;-65
2023/10/03 10:32:17;;;;;;;5.72;3.00;;;;;;;22.83;45.72;100810.75;5115941;28;20450;-65
2023/10/03 10:34:47;;;;;;;6.47;3.10;;;;;;;22.88;45.64;100804.91;5115719;28;20040;-65
2023/10/03 10:37:17;;;;;;;6.15;3.38;;;;;;;22.94;45.85;100806.97;5115712;28;20050;-65
2023/10/03 10:40:10;;;;;;;6.15;2.92;;;;;;;23.00;45.79;100801.75;5115767;28;20073;-64
2023/10/03 10:42:59;;;;;;;5.70;3.08;;;;;;;23.05;45.63;100799.38;5115717;28;20063;-63
2023/10/03 10:45:37;;;;;;;7.15;3.38;;;;;;;23.12;45.84;100796.88;5115268;28;20516;-64
2023/10/03 10:48:07;;;;;;;5.68;3.28;;;;;;;23.17;45.81;100786.41;5115511;28;20048;-63
2023/10/03 10:51:09;;;;;;;6.30;3.17;;;;;;;23.23;45.57;100791.16;5115161;28;20048;-65
2023/10/03 10:53:44;;;;;;;7.03;3.20;;;;;;;23.29;45.61;100793.25;5112283;28;20047;-64
2023/10/03 10:56:15;;;;;;;6.22;3.17;;;;;;;23.34;45.59;100788.16;5115306;28;20504;-65
2023/10/03 10:58:51;;;;;;;5.78;3.10;;;;;;;23.39;45.45;100779.53;5115338;28;20043;-65
2023/10/03 11:01:19;;;;;;;6.95;3.45;;;;;;;23.45;45.47;100772.56;5115024;28;20126;-65
2023/10/03 11:03:49;;;;;;;4.97;2.88;;;;;;;23.51;45.27;100770.06;5115083;28;20484;-64
2023/10/03 11:06:18;;;;;;;5.30;2.90;;;;;;;23.57;45.33;100771.28;5115282;28;20404;-65
2023/10/03 11:08:49;;;;;;;6.88;3.28;;;;;;;23.62;45.34;100758.03;5115367;28;20523;-65
2023/10/03 11:11:20;;;;;;;5.10;2.78;;;;;;;23.66;45.20;100765.75;5115069;28;20097;-65
2023/10/03 11:13:50;;;;;;;6.70;3.00;;;;;;;23.72;45.14;100764.22;5115285;28;20181;-65
2023/10/03 11:16:23;;;;;;;7.00;3.50;;;;;;;23.79;45.20;100762.53;5115043;28;20510;-66
2023/10/03 11:18:51;;;;;;;;;;;;;;;23.83;45.12;100758.44;5115665;28;20085;-65
2023/10/03 11:21:20;;;;;;;4.65;2.70;;;;;;;23.88;45.04;100753.38;5115190;28;19955;-65
2023/10/03 11:24:14;;;;;;;4.88;2.80;;;;;;;23.94;45.25;100751.88;5115033;28;20400;-64
2023/10/03 11:26:49;;;;;;;5.68;2.78;;;;;;;23.99;44.92;100744.88;5114637;28;20046;-64
2023/10/03 11:29:38;;;;;;;5.60;3.20;;;;;;;24.07;44.78;100745.91;5114298;28;20073;-63
2023/10/03 11:32:18;;;;;;;6.18;3.00;;;;;;;24.11;45.00;100737.22;5114740;28;20442;-64
2023/10/03 11:34:48;;;;;;;5.30;3.00;;;;;;;24.16;44.72;100734.00;5113986;28;20104;-63
2023/10/03 11:37:33;;;;;;;4.85;2.60;;;;;;;24.21;44.75;100751.53;5114333;28;20106;-64
2023/10/03 11:40:07;;;;;;;5.38;2.75;;;;;;;24.27;44.71;100731.81;5114674;28;20047;-63
2023/10/03 11:42:49;;;;;;;6.28;3.13;;;;;;;24.33;44.67;100726.75;5114263;28;20040;-64
2023/10/03 11:45:19;;;;;;;6.20;3.20;;;;;;;24.38;44.83;100721.63;5113922;28;20086;-64